sensor_id;sensor_type;location;lat;lon;timestamp;temperature;humidity
4103;DHT22;2065;49.790;9.620;2022-08-14T00:02:06;27.50;41.70
4103;DHT22;2065;49.790;9.620;2022-08-14T00:04:34;27.60;42.00
4103;DHT22;2065;49.790;9.620;2022-08-14T00:07:01;27.60;42.30
4103;DHT22;2065;49.790;9.620;2022-08-14T00:09:28;27.60;42.50
4103;DHT22;2065;49.790;9.620;2022-08-14T00:11:55;27.60;42.60
4103;DHT22;2065;49.790;9.620;2022-08-14T00:14:25;27.60;42.60
4103;DHT22;2065;49.790;9.620;2022-08-14T00:16:52;27.60;42.70
4103;DHT22;2065;49.790;9.620;2022-08-14T00:19:20;27.50;43.20
4103;DHT22;2065;49.790;9.620;2022-08-14T00:21:47;27.50;42.80
4103;DHT22;2065;49.790;9.620;2022-08-14T00:24:15;27.50;43.00
4103;DHT22;2065;49.790;9.620;2022-08-14T00:26:42;27.50;42.60
4103;DHT22;2065;49.790;9.620;2022-08-14T00:29:08;27.40;43.20
4103;DHT22;2065;49.790;9.620;2022-08-14T00:31:37;27.40;42.90
4103;DHT22;2065;49.790;9.620;2022-08-14T00:34:04;27.30;42.80
4103;DHT22;2065;49.790;9.620;2022-08-14T00:36:31;27.20;43.20
4103;DHT22;2065;49.790;9.620;2022-08-14T00:38:58;27.20;43.00
4103;DHT22;2065;49.790;9.620;2022-08-14T00:41:29;27.20;43.00
4103;DHT22;2065;49.790;9.620;2022-08-14T00:43:57;27.20;42.60
4103;DHT22;2065;49.790;9.620;2022-08-14T00:46:24;27.10;42.90
4103;DHT22;2065;49.790;9.620;2022-08-14T00:48:52;27.10;43.30
4103;DHT22;2065;49.790;9.620;2022-08-14T00:51:20;27.10;43.20
4103;DHT22;2065;49.790;9.620;2022-08-14T00:53:47;27.00;43.40
4103;DHT22;2065;49.790;9.620;2022-08-14T00:56:16;27.00;43.30
4103;DHT22;2065;49.790;9.620;2022-08-14T00:58:44;27.00;43.40
4103;DHT22;2065;49.790;9.620;2022-08-14T01:01:12;27.00;43.30
4103;DHT22;2065;49.790;9.620;2022-08-14T01:03:41;27.00;43.20
4103;DHT22;2065;49.790;9.620;2022-08-14T01:06:12;26.90;43.10
4103;DHT22;2065;49.790;9.620;2022-08-14T01:08:42;26.90;43.60
4103;DHT22;2065;49.790;9.620;2022-08-14T01:11:11;26.90;43.90
4103;DHT22;2065;49.790;9.620;2022-08-14T01:13:43;26.80;43.70
4103;DHT22;2065;49.790;9.620;2022-08-14T01:16:12;26.80;44.20
4103;DHT22;2065;49.790;9.620;2022-08-14T01:18:40;26.70;44.30
4103;DHT22;2065;49.790;9.620;2022-08-14T01:21:29;26.60;44.00
4103;DHT22;2065;49.790;9.620;2022-08-14T01:23:57;26.60;44.10
4103;DHT22;2065;49.790;9.620;2022-08-14T01:26:25;26.60;44.50
4103;DHT22;2065;49.790;9.620;2022-08-14T01:28:54;26.60;44.50
4103;DHT22;2065;49.790;9.620;2022-08-14T01:31:23;26.50;44.50
4103;DHT22;2065;49.790;9.620;2022-08-14T01:33:53;26.50;43.90
4103;DHT22;2065;49.790;9.620;2022-08-14T01:36:23;26.50;45.10
4103;DHT22;2065;49.790;9.620;2022-08-14T01:38:54;26.50;44.30
4103;DHT22;2065;49.790;9.620;2022-08-14T01:41:24;26.40;44.80
4103;DHT22;2065;49.790;9.620;2022-08-14T01:43:54;26.40;45.10
4103;DHT22;2065;49.790;9.620;2022-08-14T01:46:28;26.30;45.10
4103;DHT22;2065;49.790;9.620;2022-08-14T01:48:56;26.30;45.70
4103;DHT22;2065;49.790;9.620;2022-08-14T01:51:24;26.10;45.90
4103;DHT22;2065;49.790;9.620;2022-08-14T01:53:56;26.10;45.70
4103;DHT22;2065;49.790;9.620;2022-08-14T01:56:26;26.20;45.70
4103;DHT22;2065;49.790;9.620;2022-08-14T01:59:01;26.20;45.70
4103;DHT22;2065;49.790;9.620;2022-08-14T02:01:28;26.10;45.50
4103;DHT22;2065;49.790;9.620;2022-08-14T02:03:55;26.10;45.60
4103;DHT22;2065;49.790;9.620;2022-08-14T02:06:23;26.10;45.40
4103;DHT22;2065;49.790;9.620;2022-08-14T02:08:52;26.10;45.50
4103;DHT22;2065;49.790;9.620;2022-08-14T02:11:22;26.10;45.50
4103;DHT22;2065;49.790;9.620;2022-08-14T02:13:55;26.00;45.40
4103;DHT22;2065;49.790;9.620;2022-08-14T02:16:27;26.00;45.60
4103;DHT22;2065;49.790;9.620;2022-08-14T02:18:57;26.00;45.70
4103;DHT22;2065;49.790;9.620;2022-08-14T02:21:25;26.00;45.80
4103;DHT22;2065;49.790;9.620;2022-08-14T02:23:54;25.90;45.60
4103;DHT22;2065;49.790;9.620;2022-08-14T02:26:25;25.90;45.60
4103;DHT22;2065;49.790;9.620;2022-08-14T02:28:53;25.90;45.80
4103;DHT22;2065;49.790;9.620;2022-08-14T02:31:21;25.90;46.00
4103;DHT22;2065;49.790;9.620;2022-08-14T02:33:48;25.80;46.10
4103;DHT22;2065;49.790;9.620;2022-08-14T02:36:15;25.70;46.00
4103;DHT22;2065;49.790;9.620;2022-08-14T02:38:42;25.70;45.70
4103;DHT22;2065;49.790;9.620;2022-08-14T02:41:11;25.70;46.10
4103;DHT22;2065;49.790;9.620;2022-08-14T02:43:41;25.60;46.40
4103;DHT22;2065;49.790;9.620;2022-08-14T02:46:09;25.60;46.30
4103;DHT22;2065;49.790;9.620;2022-08-14T02:48:38;25.60;46.30
4103;DHT22;2065;49.790;9.620;2022-08-14T02:51:07;25.60;46.30
4103;DHT22;2065;49.790;9.620;2022-08-14T02:53:36;25.60;45.90
4103;DHT22;2065;49.790;9.620;2022-08-14T02:56:06;25.50;46.50
4103;DHT22;2065;49.790;9.620;2022-08-14T02:58:35;25.50;46.60
4103;DHT22;2065;49.790;9.620;2022-08-14T03:01:05;25.40;47.00
4103;DHT22;2065;49.790;9.620;2022-08-14T03:03:33;25.40;47.50
4103;DHT22;2065;49.790;9.620;2022-08-14T03:06:02;24.90;48.90
4103;DHT22;2065;49.790;9.620;2022-08-14T03:08:29;24.60;49.40
4103;DHT22;2065;49.790;9.620;2022-08-14T03:10:59;24.10;50.50
4103;DHT22;2065;49.790;9.620;2022-08-14T03:13:26;23.80;51.40
4103;DHT22;2065;49.790;9.620;2022-08-14T03:15:53;23.70;51.80
4103;DHT22;2065;49.790;9.620;2022-08-14T03:18:23;23.70;51.60
4103;DHT22;2065;49.790;9.620;2022-08-14T03:20:50;24.00;51.10
4103;DHT22;2065;49.790;9.620;2022-08-14T03:23:18;24.20;50.90
4103;DHT22;2065;49.790;9.620;2022-08-14T03:25:46;24.40;50.30
4103;DHT22;2065;49.790;9.620;2022-08-14T03:28:13;24.50;49.40
4103;DHT22;2065;49.790;9.620;2022-08-14T03:30:41;24.70;49.30
4103;DHT22;2065;49.790;9.620;2022-08-14T03:33:10;24.70;49.00
4103;DHT22;2065;49.790;9.620;2022-08-14T03:35:39;24.80;48.50
4103;DHT22;2065;49.790;9.620;2022-08-14T03:38:08;24.90;48.60
4103;DHT22;2065;49.790;9.620;2022-08-14T03:40:36;24.90;48.60
4103;DHT22;2065;49.790;9.620;2022-08-14T03:43:04;24.90;48.50
4103;DHT22;2065;49.790;9.620;2022-08-14T03:45:32;25.00;48.40
4103;DHT22;2065;49.790;9.620;2022-08-14T03:48:02;25.00;48.40
4103;DHT22;2065;49.790;9.620;2022-08-14T03:50:30;24.90;48.20
4103;DHT22;2065;49.790;9.620;2022-08-14T03:53:00;24.90;48.30
4103;DHT22;2065;49.790;9.620;2022-08-14T03:55:28;24.90;48.60
4103;DHT22;2065;49.790;9.620;2022-08-14T03:57:55;24.80;49.00
4103;DHT22;2065;49.790;9.620;2022-08-14T04:00:22;24.80;49.00
4103;DHT22;2065;49.790;9.620;2022-08-14T04:02:49;24.80;49.10
4103;DHT22;2065;49.790;9.620;2022-08-14T04:05:16;24.80;49.10
4103;DHT22;2065;49.790;9.620;2022-08-14T04:07:44;24.80;49.50
4103;DHT22;2065;49.790;9.620;2022-08-14T04:10:12;24.70;49.40
4103;DHT22;2065;49.790;9.620;2022-08-14T04:12:39;24.70;49.40
4103;DHT22;2065;49.790;9.620;2022-08-14T04:15:08;24.70;49.10
4103;DHT22;2065;49.790;9.620;2022-08-14T04:17:35;24.70;48.90
4103;DHT22;2065;49.790;9.620;2022-08-14T04:20:03;24.70;48.70
4103;DHT22;2065;49.790;9.620;2022-08-14T04:22:31;24.70;48.70
4103;DHT22;2065;49.790;9.620;2022-08-14T04:24:59;24.70;48.50
4103;DHT22;2065;49.790;9.620;2022-08-14T04:27:28;24.60;48.40
4103;DHT22;2065;49.790;9.620;2022-08-14T04:29:55;24.60;47.60
4103;DHT22;2065;49.790;9.620;2022-08-14T04:32:23;24.50;48.90
4103;DHT22;2065;49.790;9.620;2022-08-14T04:34:52;24.60;49.00
4103;DHT22;2065;49.790;9.620;2022-08-14T04:37:21;24.50;49.30
4103;DHT22;2065;49.790;9.620;2022-08-14T04:40:06;24.00;50.90
4103;DHT22;2065;49.790;9.620;2022-08-14T04:42:53;23.20;52.50
4103;DHT22;2065;49.790;9.620;2022-08-14T04:45:38;23.00;53.10
4103;DHT22;2065;49.790;9.620;2022-08-14T04:48:07;22.80;53.90
4103;DHT22;2065;49.790;9.620;2022-08-14T04:50:41;23.20;52.80
4103;DHT22;2065;49.790;9.620;2022-08-14T04:53:11;23.60;51.80
4103;DHT22;2065;49.790;9.620;2022-08-14T04:55:39;23.90;51.40
4103;DHT22;2065;49.790;9.620;2022-08-14T04:58:08;24.00;51.20
4103;DHT22;2065;49.790;9.620;2022-08-14T05:00:36;24.10;51.20
4103;DHT22;2065;49.790;9.620;2022-08-14T05:03:05;24.20;51.10
4103;DHT22;2065;49.790;9.620;2022-08-14T05:05:32;24.30;51.20
4103;DHT22;2065;49.790;9.620;2022-08-14T05:08:05;24.30;51.60
4103;DHT22;2065;49.790;9.620;2022-08-14T05:10:35;24.30;51.30
4103;DHT22;2065;49.790;9.620;2022-08-14T05:13:02;24.30;51.90
4103;DHT22;2065;49.790;9.620;2022-08-14T05:15:33;24.30;51.70
4103;DHT22;2065;49.790;9.620;2022-08-14T05:18:03;24.30;52.10
4103;DHT22;2065;49.790;9.620;2022-08-14T05:20:37;24.30;51.60
4103;DHT22;2065;49.790;9.620;2022-08-14T05:23:05;24.40;51.90
4103;DHT22;2065;49.790;9.620;2022-08-14T05:25:34;24.40;51.70
4103;DHT22;2065;49.790;9.620;2022-08-14T05:28:08;24.50;51.90
4103;DHT22;2065;49.790;9.620;2022-08-14T05:30:38;24.50;51.70
4103;DHT22;2065;49.790;9.620;2022-08-14T05:33:09;24.50;51.60
4103;DHT22;2065;49.790;9.620;2022-08-14T05:35:37;24.50;51.40
4103;DHT22;2065;49.790;9.620;2022-08-14T05:38:06;24.60;51.60
4103;DHT22;2065;49.790;9.620;2022-08-14T05:40:33;24.60;51.50
4103;DHT22;2065;49.790;9.620;2022-08-14T05:43:01;24.60;51.60
4103;DHT22;2065;49.790;9.620;2022-08-14T05:45:28;24.60;51.40
4103;DHT22;2065;49.790;9.620;2022-08-14T05:47:56;24.50;51.40
4103;DHT22;2065;49.790;9.620;2022-08-14T05:50:23;24.60;51.70
4103;DHT22;2065;49.790;9.620;2022-08-14T05:52:50;24.60;51.80
4103;DHT22;2065;49.790;9.620;2022-08-14T05:55:19;24.60;52.00
4103;DHT22;2065;49.790;9.620;2022-08-14T05:57:47;24.70;51.80
4103;DHT22;2065;49.790;9.620;2022-08-14T06:00:16;24.70;51.30
4103;DHT22;2065;49.790;9.620;2022-08-14T06:02:43;24.80;51.30
4103;DHT22;2065;49.790;9.620;2022-08-14T06:05:12;24.80;51.30
4103;DHT22;2065;49.790;9.620;2022-08-14T06:07:39;24.80;51.30
4103;DHT22;2065;49.790;9.620;2022-08-14T06:10:08;24.80;51.60
4103;DHT22;2065;49.790;9.620;2022-08-14T06:12:35;24.70;52.10
4103;DHT22;2065;49.790;9.620;2022-08-14T06:15:03;24.70;52.30
4103;DHT22;2065;49.790;9.620;2022-08-14T06:17:31;24.80;52.10
4103;DHT22;2065;49.790;9.620;2022-08-14T06:19:58;24.80;51.60
4103;DHT22;2065;49.790;9.620;2022-08-14T06:22:26;24.90;51.40
4103;DHT22;2065;49.790;9.620;2022-08-14T06:24:53;25.00;51.60
4103;DHT22;2065;49.790;9.620;2022-08-14T06:27:20;25.00;51.40
4103;DHT22;2065;49.790;9.620;2022-08-14T06:29:48;25.10;51.50
4103;DHT22;2065;49.790;9.620;2022-08-14T06:32:15;25.10;51.50
4103;DHT22;2065;49.790;9.620;2022-08-14T06:34:42;25.20;51.50
4103;DHT22;2065;49.790;9.620;2022-08-14T06:37:09;25.20;51.20
4103;DHT22;2065;49.790;9.620;2022-08-14T06:39:37;25.30;51.10
4103;DHT22;2065;49.790;9.620;2022-08-14T06:42:05;25.30;50.70
4103;DHT22;2065;49.790;9.620;2022-08-14T06:44:32;25.40;50.90
4103;DHT22;2065;49.790;9.620;2022-08-14T06:46:59;25.50;50.90
4103;DHT22;2065;49.790;9.620;2022-08-14T06:49:27;25.60;50.90
4103;DHT22;2065;49.790;9.620;2022-08-14T06:51:54;25.70;51.00
4103;DHT22;2065;49.790;9.620;2022-08-14T06:54:21;25.80;50.90
4103;DHT22;2065;49.790;9.620;2022-08-14T06:56:49;25.90;50.80
4103;DHT22;2065;49.790;9.620;2022-08-14T06:59:17;26.00;50.50
4103;DHT22;2065;49.790;9.620;2022-08-14T07:01:44;26.10;50.50
4103;DHT22;2065;49.790;9.620;2022-08-14T07:04:28;26.10;50.50
4103;DHT22;2065;49.790;9.620;2022-08-14T07:07:13;26.30;50.30
4103;DHT22;2065;49.790;9.620;2022-08-14T07:09:40;26.60;50.00
4103;DHT22;2065;49.790;9.620;2022-08-14T07:12:09;26.70;49.60
4103;DHT22;2065;49.790;9.620;2022-08-14T07:14:36;26.80;49.20
4103;DHT22;2065;49.790;9.620;2022-08-14T07:17:03;26.80;49.30
4103;DHT22;2065;49.790;9.620;2022-08-14T07:19:30;26.90;49.50
4103;DHT22;2065;49.790;9.620;2022-08-14T07:21:57;27.00;48.90
4103;DHT22;2065;49.790;9.620;2022-08-14T07:24:25;26.90;49.50
4103;DHT22;2065;49.790;9.620;2022-08-14T07:26:52;27.10;49.30
4103;DHT22;2065;49.790;9.620;2022-08-14T07:29:21;27.30;48.70
4103;DHT22;2065;49.790;9.620;2022-08-14T07:31:48;27.20;48.50
4103;DHT22;2065;49.790;9.620;2022-08-14T07:34:15;27.50;48.40
4103;DHT22;2065;49.790;9.620;2022-08-14T07:36:43;27.70;47.70
4103;DHT22;2065;49.790;9.620;2022-08-14T07:39:10;27.70;47.60
4103;DHT22;2065;49.790;9.620;2022-08-14T07:41:37;27.70;47.40
4103;DHT22;2065;49.790;9.620;2022-08-14T07:44:04;27.90;47.40
4103;DHT22;2065;49.790;9.620;2022-08-14T07:46:32;28.10;47.10
4103;DHT22;2065;49.790;9.620;2022-08-14T07:48:59;28.10;46.50
4103;DHT22;2065;49.790;9.620;2022-08-14T07:51:26;28.10;46.40
4103;DHT22;2065;49.790;9.620;2022-08-14T07:53:53;28.00;46.50
4103;DHT22;2065;49.790;9.620;2022-08-14T07:56:20;28.10;46.70
4103;DHT22;2065;49.790;9.620;2022-08-14T07:58:47;28.30;46.30
4103;DHT22;2065;49.790;9.620;2022-08-14T08:01:15;28.50;45.70
4103;DHT22;2065;49.790;9.620;2022-08-14T08:03:45;28.60;45.70
4103;DHT22;2065;49.790;9.620;2022-08-14T08:06:15;28.60;45.50
4103;DHT22;2065;49.790;9.620;2022-08-14T08:08:43;28.50;45.50
4103;DHT22;2065;49.790;9.620;2022-08-14T08:11:12;28.50;45.50
4103;DHT22;2065;49.790;9.620;2022-08-14T08:13:40;28.70;45.60
4103;DHT22;2065;49.790;9.620;2022-08-14T08:16:08;28.80;44.90
4103;DHT22;2065;49.790;9.620;2022-08-14T08:18:35;28.90;44.80
4103;DHT22;2065;49.790;9.620;2022-08-14T08:21:03;28.90;44.40
4103;DHT22;2065;49.790;9.620;2022-08-14T08:23:30;29.00;44.40
4103;DHT22;2065;49.790;9.620;2022-08-14T08:25:58;29.10;44.10
4103;DHT22;2065;49.790;9.620;2022-08-14T08:28:26;29.20;43.90
4103;DHT22;2065;49.790;9.620;2022-08-14T08:30:55;29.20;43.20
4103;DHT22;2065;49.790;9.620;2022-08-14T08:33:23;29.20;43.50
4103;DHT22;2065;49.790;9.620;2022-08-14T08:35:53;29.40;42.90
4103;DHT22;2065;49.790;9.620;2022-08-14T08:38:25;29.30;43.40
4103;DHT22;2065;49.790;9.620;2022-08-14T08:40:54;29.30;43.20
4103;DHT22;2065;49.790;9.620;2022-08-14T08:43:22;29.60;43.00
4103;DHT22;2065;49.790;9.620;2022-08-14T08:45:53;29.80;42.80
4103;DHT22;2065;49.790;9.620;2022-08-14T08:48:21;29.90;42.80
4103;DHT22;2065;49.790;9.620;2022-08-14T08:50:49;30.20;42.40
4103;DHT22;2065;49.790;9.620;2022-08-14T08:53:16;30.30;41.70
4103;DHT22;2065;49.790;9.620;2022-08-14T08:55:44;30.30;40.40
4103;DHT22;2065;49.790;9.620;2022-08-14T08:58:14;30.30;40.60
4103;DHT22;2065;49.790;9.620;2022-08-14T09:00:45;30.50;40.30
4103;DHT22;2065;49.790;9.620;2022-08-14T09:03:14;30.50;39.90
4103;DHT22;2065;49.790;9.620;2022-08-14T09:05:49;30.40;40.30
4103;DHT22;2065;49.790;9.620;2022-08-14T09:08:18;30.60;40.30
4103;DHT22;2065;49.790;9.620;2022-08-14T09:10:47;30.90;40.10
4103;DHT22;2065;49.790;9.620;2022-08-14T09:13:15;31.10;38.80
4103;DHT22;2065;49.790;9.620;2022-08-14T09:15:43;31.10;38.80
4103;DHT22;2065;49.790;9.620;2022-08-14T09:18:12;31.20;38.00
4103;DHT22;2065;49.790;9.620;2022-08-14T09:20:40;31.10;37.90
4103;DHT22;2065;49.790;9.620;2022-08-14T09:23:08;31.40;38.40
4103;DHT22;2065;49.790;9.620;2022-08-14T09:25:36;31.70;37.70
4103;DHT22;2065;49.790;9.620;2022-08-14T09:28:06;32.00;36.90
4103;DHT22;2065;49.790;9.620;2022-08-14T09:30:36;32.00;36.30
4103;DHT22;2065;49.790;9.620;2022-08-14T09:33:21;31.90;36.40
4103;DHT22;2065;49.790;9.620;2022-08-14T09:36:02;32.30;36.30
4103;DHT22;2065;49.790;9.620;2022-08-14T09:38:41;32.60;35.30
4103;DHT22;2065;49.790;9.620;2022-08-14T09:41:22;32.70;34.70
4103;DHT22;2065;49.790;9.620;2022-08-14T09:44:02;32.70;35.30
4103;DHT22;2065;49.790;9.620;2022-08-14T09:46:31;32.90;33.60
4103;DHT22;2065;49.790;9.620;2022-08-14T09:48:59;32.70;34.10
4103;DHT22;2065;49.790;9.620;2022-08-14T09:51:28;32.90;34.60
4103;DHT22;2065;49.790;9.620;2022-08-14T09:54:00;32.90;34.90
4103;DHT22;2065;49.790;9.620;2022-08-14T09:56:42;32.90;34.40
4103;DHT22;2065;49.790;9.620;2022-08-14T09:59:13;33.20;33.40
4103;DHT22;2065;49.790;9.620;2022-08-14T10:01:41;33.20;33.50
4103;DHT22;2065;49.790;9.620;2022-08-14T10:04:18;33.30;34.00
4103;DHT22;2065;49.790;9.620;2022-08-14T10:06:45;33.20;31.20
4103;DHT22;2065;49.790;9.620;2022-08-14T10:09:13;33.40;30.70
4103;DHT22;2065;49.790;9.620;2022-08-14T10:11:40;33.30;31.20
4103;DHT22;2065;49.790;9.620;2022-08-14T10:14:14;33.40;30.30
4103;DHT22;2065;49.790;9.620;2022-08-14T10:16:43;33.60;30.30
4103;DHT22;2065;49.790;9.620;2022-08-14T10:19:13;33.70;31.50
4103;DHT22;2065;49.790;9.620;2022-08-14T10:21:42;33.70;29.80
4103;DHT22;2065;49.790;9.620;2022-08-14T10:24:22;33.90;30.50
4103;DHT22;2065;49.790;9.620;2022-08-14T10:26:52;34.20;31.20
4103;DHT22;2065;49.790;9.620;2022-08-14T10:29:30;34.30;29.60
4103;DHT22;2065;49.790;9.620;2022-08-14T10:31:58;34.50;29.00
4103;DHT22;2065;49.790;9.620;2022-08-14T10:34:31;34.80;28.80
4103;DHT22;2065;49.790;9.620;2022-08-14T10:37:03;34.80;27.70
4103;DHT22;2065;49.790;9.620;2022-08-14T10:39:32;34.70;27.50
4103;DHT22;2065;49.790;9.620;2022-08-14T10:42:03;34.70;28.00
4103;DHT22;2065;49.790;9.620;2022-08-14T10:44:34;34.80;28.30
4103;DHT22;2065;49.790;9.620;2022-08-14T10:47:04;35.00;28.60
4103;DHT22;2065;49.790;9.620;2022-08-14T10:49:33;35.00;28.20
4103;DHT22;2065;49.790;9.620;2022-08-14T10:52:05;35.10;28.40
4103;DHT22;2065;49.790;9.620;2022-08-14T10:54:35;35.40;27.90
4103;DHT22;2065;49.790;9.620;2022-08-14T10:57:13;35.50;27.80
4103;DHT22;2065;49.790;9.620;2022-08-14T10:59:44;35.60;27.30
4103;DHT22;2065;49.790;9.620;2022-08-14T11:02:25;35.60;27.30
4103;DHT22;2065;49.790;9.620;2022-08-14T11:05:03;35.60;27.00
4103;DHT22;2065;49.790;9.620;2022-08-14T11:07:33;35.60;26.80
4103;DHT22;2065;49.790;9.620;2022-08-14T11:10:05;35.20;27.50
4103;DHT22;2065;49.790;9.620;2022-08-14T11:12:41;35.40;27.10
4103;DHT22;2065;49.790;9.620;2022-08-14T11:15:13;35.80;26.70
4103;DHT22;2065;49.790;9.620;2022-08-14T11:17:42;36.20;26.90
4103;DHT22;2065;49.790;9.620;2022-08-14T11:20:11;36.10;26.70
4103;DHT22;2065;49.790;9.620;2022-08-14T11:22:40;36.10;26.30
4103;DHT22;2065;49.790;9.620;2022-08-14T11:25:10;36.30;27.10
4103;DHT22;2065;49.790;9.620;2022-08-14T11:27:40;36.30;26.30
4103;DHT22;2065;49.790;9.620;2022-08-14T11:30:10;36.40;27.50
4103;DHT22;2065;49.790;9.620;2022-08-14T11:32:40;36.70;26.70
4103;DHT22;2065;49.790;9.620;2022-08-14T11:35:11;37.00;26.20
4103;DHT22;2065;49.790;9.620;2022-08-14T11:37:54;37.20;26.30
4103;DHT22;2065;49.790;9.620;2022-08-14T11:40:22;37.70;26.20
4103;DHT22;2065;49.790;9.620;2022-08-14T11:42:52;37.90;25.00
4103;DHT22;2065;49.790;9.620;2022-08-14T11:45:21;37.80;24.40
4103;DHT22;2065;49.790;9.620;2022-08-14T11:47:51;37.40;25.50
4103;DHT22;2065;49.790;9.620;2022-08-14T11:50:22;37.10;25.20
4103;DHT22;2065;49.790;9.620;2022-08-14T11:52:49;36.90;25.00
4103;DHT22;2065;49.790;9.620;2022-08-14T11:55:16;36.70;25.80
4103;DHT22;2065;49.790;9.620;2022-08-14T11:57:44;36.90;25.40
4103;DHT22;2065;49.790;9.620;2022-08-14T12:00:15;37.20;25.50
4103;DHT22;2065;49.790;9.620;2022-08-14T12:02:51;37.00;24.70
4103;DHT22;2065;49.790;9.620;2022-08-14T12:05:31;37.00;25.00
4103;DHT22;2065;49.790;9.620;2022-08-14T12:07:59;37.10;24.50
4103;DHT22;2065;49.790;9.620;2022-08-14T12:10:26;37.10;24.00
4103;DHT22;2065;49.790;9.620;2022-08-14T12:12:54;37.00;24.10
4103;DHT22;2065;49.790;9.620;2022-08-14T12:15:30;37.20;24.90
4103;DHT22;2065;49.790;9.620;2022-08-14T12:17:58;37.40;24.50
4103;DHT22;2065;49.790;9.620;2022-08-14T12:20:30;37.60;24.20
4103;DHT22;2065;49.790;9.620;2022-08-14T12:22:59;37.80;24.00
4103;DHT22;2065;49.790;9.620;2022-08-14T12:25:27;37.90;24.00
4103;DHT22;2065;49.790;9.620;2022-08-14T12:27:55;37.90;24.00
4103;DHT22;2065;49.790;9.620;2022-08-14T12:30:30;37.40;24.50
4103;DHT22;2065;49.790;9.620;2022-08-14T12:32:59;37.50;24.40
4103;DHT22;2065;49.790;9.620;2022-08-14T12:35:36;37.40;24.10
4103;DHT22;2065;49.790;9.620;2022-08-14T12:38:03;37.30;23.80
4103;DHT22;2065;49.790;9.620;2022-08-14T12:40:30;37.10;24.50
4103;DHT22;2065;49.790;9.620;2022-08-14T12:42:59;37.20;24.50
4103;DHT22;2065;49.790;9.620;2022-08-14T12:45:32;37.40;23.70
4103;DHT22;2065;49.790;9.620;2022-08-14T12:48:03;37.40;23.30
4103;DHT22;2065;49.790;9.620;2022-08-14T12:50:35;37.30;23.70
4103;DHT22;2065;49.790;9.620;2022-08-14T12:53:02;37.30;23.60
4103;DHT22;2065;49.790;9.620;2022-08-14T12:55:30;37.60;23.70
4103;DHT22;2065;49.790;9.620;2022-08-14T12:58:00;37.80;23.10
4103;DHT22;2065;49.790;9.620;2022-08-14T13:00:30;37.60;23.60
4103;DHT22;2065;49.790;9.620;2022-08-14T13:02:57;37.40;23.80
4103;DHT22;2065;49.790;9.620;2022-08-14T13:05:27;36.80;23.90
4103;DHT22;2065;49.790;9.620;2022-08-14T13:07:57;36.80;24.40
4103;DHT22;2065;49.790;9.620;2022-08-14T13:10:26;37.10;24.40
4103;DHT22;2065;49.790;9.620;2022-08-14T13:12:56;37.30;23.60
4103;DHT22;2065;49.790;9.620;2022-08-14T13:15:24;37.20;23.80
4103;DHT22;2065;49.790;9.620;2022-08-14T13:17:54;37.50;23.50
4103;DHT22;2065;49.790;9.620;2022-08-14T13:20:23;37.30;23.70
4103;DHT22;2065;49.790;9.620;2022-08-14T13:22:52;37.70;23.40
4103;DHT22;2065;49.790;9.620;2022-08-14T13:25:26;37.60;23.20
4103;DHT22;2065;49.790;9.620;2022-08-14T13:28:04;37.90;23.90
4103;DHT22;2065;49.790;9.620;2022-08-14T13:30:36;38.20;22.80
4103;DHT22;2065;49.790;9.620;2022-08-14T13:33:21;38.40;23.00
4103;DHT22;2065;49.790;9.620;2022-08-14T13:35:52;38.80;23.00
4103;DHT22;2065;49.790;9.620;2022-08-14T13:38:22;39.00;23.10
4103;DHT22;2065;49.790;9.620;2022-08-14T13:40:54;39.20;22.80
4103;DHT22;2065;49.790;9.620;2022-08-14T13:43:25;39.00;22.60
4103;DHT22;2065;49.790;9.620;2022-08-14T13:45:52;38.60;22.80
4103;DHT22;2065;49.790;9.620;2022-08-14T13:48:24;38.20;23.30
4103;DHT22;2065;49.790;9.620;2022-08-14T13:50:59;37.90;23.70
4103;DHT22;2065;49.790;9.620;2022-08-14T13:53:31;37.80;23.80
4103;DHT22;2065;49.790;9.620;2022-08-14T13:56:02;38.00;23.90
4103;DHT22;2065;49.790;9.620;2022-08-14T13:58:33;38.00;23.30
4103;DHT22;2065;49.790;9.620;2022-08-14T14:01:03;38.30;23.30
4103;DHT22;2065;49.790;9.620;2022-08-14T14:03:42;38.20;23.30
4103;DHT22;2065;49.790;9.620;2022-08-14T14:06:13;38.40;23.00
4103;DHT22;2065;49.790;9.620;2022-08-14T14:08:47;38.30;22.80
4103;DHT22;2065;49.790;9.620;2022-08-14T14:11:18;38.00;23.00
4103;DHT22;2065;49.790;9.620;2022-08-14T14:13:53;37.70;23.00
4103;DHT22;2065;49.790;9.620;2022-08-14T14:16:23;37.70;23.60
4103;DHT22;2065;49.790;9.620;2022-08-14T14:18:58;37.50;23.50
4103;DHT22;2065;49.790;9.620;2022-08-14T14:21:32;37.30;23.60
4103;DHT22;2065;49.790;9.620;2022-08-14T14:24:06;36.90;24.00
4103;DHT22;2065;49.790;9.620;2022-08-14T14:26:36;36.80;24.60
4103;DHT22;2065;49.790;9.620;2022-08-14T14:29:05;36.70;24.80
4103;DHT22;2065;49.790;9.620;2022-08-14T14:31:35;36.70;24.40
4103;DHT22;2065;49.790;9.620;2022-08-14T14:34:04;36.80;24.40
4103;DHT22;2065;49.790;9.620;2022-08-14T14:36:31;36.80;24.40
4103;DHT22;2065;49.790;9.620;2022-08-14T14:39:00;36.60;24.30
4103;DHT22;2065;49.790;9.620;2022-08-14T14:41:30;36.50;24.10
4103;DHT22;2065;49.790;9.620;2022-08-14T14:43:58;36.50;24.10
4103;DHT22;2065;49.790;9.620;2022-08-14T14:46:27;36.70;24.30
4103;DHT22;2065;49.790;9.620;2022-08-14T14:48:59;36.60;24.20
4103;DHT22;2065;49.790;9.620;2022-08-14T14:51:27;36.60;24.20
4103;DHT22;2065;49.790;9.620;2022-08-14T14:53:55;36.70;23.80
4103;DHT22;2065;49.790;9.620;2022-08-14T14:56:23;36.70;24.20
4103;DHT22;2065;49.790;9.620;2022-08-14T14:58:52;36.80;24.40
4103;DHT22;2065;49.790;9.620;2022-08-14T15:01:19;36.90;24.10
4103;DHT22;2065;49.790;9.620;2022-08-14T15:03:49;37.20;23.60
4103;DHT22;2065;49.790;9.620;2022-08-14T15:06:19;37.20;23.10
4103;DHT22;2065;49.790;9.620;2022-08-14T15:08:46;37.20;23.20
4103;DHT22;2065;49.790;9.620;2022-08-14T15:11:13;37.20;23.50
4103;DHT22;2065;49.790;9.620;2022-08-14T15:13:40;37.10;22.70
4103;DHT22;2065;49.790;9.620;2022-08-14T15:16:08;37.00;23.10
4103;DHT22;2065;49.790;9.620;2022-08-14T15:18:35;37.20;23.10
4103;DHT22;2065;49.790;9.620;2022-08-14T15:21:03;37.20;23.00
4103;DHT22;2065;49.790;9.620;2022-08-14T15:23:31;37.10;22.10
4103;DHT22;2065;49.790;9.620;2022-08-14T15:25:58;36.90;22.30
4103;DHT22;2065;49.790;9.620;2022-08-14T15:28:26;36.50;22.70
4103;DHT22;2065;49.790;9.620;2022-08-14T15:30:57;36.50;23.00
4103;DHT22;2065;49.790;9.620;2022-08-14T15:33:25;36.30;23.20
4103;DHT22;2065;49.790;9.620;2022-08-14T15:36:10;36.20;23.80
4103;DHT22;2065;49.790;9.620;2022-08-14T15:38:37;36.20;23.40
4103;DHT22;2065;49.790;9.620;2022-08-14T15:41:04;36.30;22.90
4103;DHT22;2065;49.790;9.620;2022-08-14T15:43:32;36.50;23.40
4103;DHT22;2065;49.790;9.620;2022-08-14T15:45:59;36.80;23.30
4103;DHT22;2065;49.790;9.620;2022-08-14T15:48:29;37.10;22.60
4103;DHT22;2065;49.790;9.620;2022-08-14T15:50:56;37.10;22.60
4103;DHT22;2065;49.790;9.620;2022-08-14T15:53:24;37.20;23.10
4103;DHT22;2065;49.790;9.620;2022-08-14T15:55:52;36.90;22.60
4103;DHT22;2065;49.790;9.620;2022-08-14T15:58:20;36.90;22.80
4103;DHT22;2065;49.790;9.620;2022-08-14T16:00:47;36.90;23.20
4103;DHT22;2065;49.790;9.620;2022-08-14T16:03:34;37.00;22.60
4103;DHT22;2065;49.790;9.620;2022-08-14T16:06:02;37.10;23.20
4103;DHT22;2065;49.790;9.620;2022-08-14T16:08:28;37.10;22.80
4103;DHT22;2065;49.790;9.620;2022-08-14T16:10:56;37.00;22.40
4103;DHT22;2065;49.790;9.620;2022-08-14T16:13:23;37.00;22.70
4103;DHT22;2065;49.790;9.620;2022-08-14T16:15:50;37.10;22.50
4103;DHT22;2065;49.790;9.620;2022-08-14T16:18:18;37.00;22.70